createdAt,value
2022-08-20T00:02:11.588Z,19.63
2022-08-20T00:04:39.702Z,16.83
2022-08-20T00:07:07.339Z,18.50
2022-08-20T00:09:36.596Z,23.70
2022-08-20T00:12:04.792Z,18.13
2022-08-20T00:14:34.025Z,16.45
2022-08-20T00:17:01.811Z,19.50
2022-08-20T00:19:30.651Z,16.67
2022-08-20T00:21:58.599Z,18.85
2022-08-20T00:24:26.110Z,17.50
2022-08-20T00:26:53.575Z,19.08
2022-08-20T00:29:22.358Z,19.98
2022-08-20T00:31:50.828Z,17.95
2022-08-20T00:34:18.470Z,21.80
2022-08-20T00:36:47.231Z,21.38
2022-08-20T00:39:15.140Z,20.42
2022-08-20T00:41:42.572Z,21.80
2022-08-20T00:44:12.310Z,23.08
2022-08-20T00:46:40.276Z,23.10
2022-08-20T00:49:09.205Z,24.50
2022-08-20T00:51:38.137Z,23.33
2022-08-20T00:54:10.819Z,24.75
2022-08-20T00:56:38.974Z,26.75
2022-08-20T00:59:11.666Z,24.17
2022-08-20T01:01:55.915Z,32.38
2022-08-20T01:04:24.877Z,28.05
2022-08-20T01:06:52.315Z,27.08
2022-08-20T01:09:33.470Z,30.85
2022-08-20T01:12:08.879Z,29.05
2022-08-20T01:14:43.526Z,25.35
2022-08-20T01:17:13.420Z,26.60
2022-08-20T01:19:44.065Z,24.67
2022-08-20T01:22:25.521Z,25.23
2022-08-20T01:25:05.014Z,25.30
2022-08-20T01:27:42.704Z,30.25
2022-08-20T01:30:11.491Z,28.13
2022-08-20T01:32:38.956Z,28.00
2022-08-20T01:35:06.697Z,26.05
2022-08-20T01:37:34.068Z,27.02
2022-08-20T01:40:02.453Z,30.10
2022-08-20T01:42:33.257Z,31.50
2022-08-20T01:45:03.772Z,31.75
2022-08-20T01:47:36.386Z,35.10
2022-08-20T01:50:08.501Z,37.45
2022-08-20T01:52:41.285Z,32.78
2022-08-20T01:55:09.416Z,36.13
2022-08-20T01:57:37.483Z,36.78
2022-08-20T02:00:08.856Z,32.65
2022-08-20T02:02:42.086Z,34.08
2022-08-20T02:05:10.651Z,34.25
2022-08-20T02:07:38.287Z,43.08
2022-08-20T02:10:06.718Z,37.13
2022-08-20T02:12:35.175Z,33.58
2022-08-20T02:15:02.622Z,31.70
2022-08-20T02:17:31.439Z,34.53
2022-08-20T02:20:00.031Z,33.92
2022-08-20T02:22:30.341Z,26.75
2022-08-20T02:24:57.783Z,25.10
2022-08-20T02:27:25.251Z,24.45
2022-08-20T02:29:53.146Z,22.20
2022-08-20T02:32:32.803Z,20.25
2022-08-20T02:35:03.814Z,18.80
2022-08-20T02:37:31.400Z,16.52
2022-08-20T02:39:59.080Z,16.73
2022-08-20T02:42:27.338Z,13.38
2022-08-20T02:44:55.005Z,12.82
2022-08-20T02:47:22.483Z,12.05
2022-08-20T02:49:49.883Z,11.07
2022-08-20T02:52:18.638Z,13.18
2022-08-20T02:54:46.083Z,10.88
2022-08-20T02:57:14.760Z,11.77
2022-08-20T02:59:43.082Z,12.48
2022-08-20T03:02:12.052Z,13.98
2022-08-20T03:04:39.468Z,14.95
2022-08-20T03:07:07.510Z,12.73
2022-08-20T03:09:36.427Z,14.63
2022-08-20T03:12:03.899Z,15.07
2022-08-20T03:14:31.568Z,14.65
2022-08-20T03:16:59.414Z,16.55
2022-08-20T03:19:27.007Z,14.88
2022-08-20T03:21:54.613Z,16.10
2022-08-20T03:24:22.082Z,14.73
2022-08-20T03:26:50.827Z,18.25
2022-08-20T03:29:18.247Z,16.83
2022-08-20T03:31:45.664Z,18.45
2022-08-20T03:34:13.100Z,18.30
2022-08-20T03:36:40.546Z,18.65
2022-08-20T03:39:11.517Z,21.02
2022-08-20T03:41:39.211Z,20.80
2022-08-20T03:44:07.958Z,20.25
2022-08-20T03:46:35.481Z,25.10
2022-08-20T03:49:03.163Z,25.25
2022-08-20T03:51:30.925Z,26.92
2022-08-20T03:53:58.904Z,28.13
2022-08-20T03:56:26.506Z,28.73
2022-08-20T03:58:53.980Z,29.63
2022-08-20T04:01:45.030Z,29.95
2022-08-20T04:04:12.236Z,31.35
2022-08-20T04:06:40.459Z,28.08
2022-08-20T04:09:09.558Z,31.52
2022-08-20T04:11:37.854Z,29.55
2022-08-20T04:14:05.342Z,30.15
2022-08-20T04:16:34.114Z,34.60
2022-08-20T04:19:03.579Z,33.28
2022-08-20T04:21:32.483Z,32.53
2022-08-20T04:24:01.126Z,34.42
2022-08-20T04:26:28.794Z,35.03
2022-08-20T04:28:56.280Z,33.75
2022-08-20T04:31:25.703Z,31.90
2022-08-20T04:33:54.792Z,31.75
2022-08-20T04:36:22.204Z,30.58
2022-08-20T04:38:50.258Z,27.95
2022-08-20T04:41:21.033Z,30.83
2022-08-20T04:43:50.816Z,31.65
2022-08-20T04:46:18.290Z,30.13
2022-08-20T04:48:49.044Z,29.33
2022-08-20T04:51:19.429Z,32.08
2022-08-20T04:53:51.976Z,32.67
2022-08-20T04:56:23.507Z,28.23
2022-08-20T04:58:51.417Z,27.80
2022-08-20T05:01:19.028Z,25.13
2022-08-20T05:03:47.547Z,29.08
2022-08-20T05:06:15.995Z,27.13
2022-08-20T05:08:45.050Z,25.35
2022-08-20T05:11:35.614Z,24.65
2022-08-20T05:14:01.833Z,26.65
2022-08-20T05:16:29.554Z,24.00
2022-08-20T05:18:57.108Z,24.70
2022-08-20T05:21:24.542Z,25.75
2022-08-20T05:23:53.348Z,21.75
2022-08-20T05:26:20.778Z,21.58
2022-08-20T05:28:58.687Z,22.90
2022-08-20T05:31:30.870Z,22.65
2022-08-20T05:34:00.558Z,19.27
2022-08-20T05:36:28.009Z,20.58
2022-08-20T05:38:56.790Z,20.52
2022-08-20T05:41:28.599Z,21.88
2022-08-20T05:43:57.434Z,18.85
2022-08-20T05:46:24.876Z,19.58
2022-08-20T05:48:52.320Z,18.73
2022-08-20T05:51:19.788Z,18.55
2022-08-20T05:53:47.198Z,20.20
2022-08-20T05:56:16.187Z,22.20
2022-08-20T05:58:43.639Z,18.38
2022-08-20T06:01:11.128Z,17.27
2022-08-20T06:03:56.118Z,19.98
2022-08-20T06:06:45.187Z,22.27
2022-08-20T06:09:11.671Z,19.58
2022-08-20T06:11:40.449Z,17.77
2022-08-20T06:14:07.867Z,17.70
2022-08-20T06:16:37.327Z,17.35
2022-08-20T06:19:05.511Z,22.42
2022-08-20T06:21:33.087Z,17.65
2022-08-20T06:24:02.282Z,22.00
2022-08-20T06:26:31.107Z,18.80
2022-08-20T06:29:00.224Z,19.15
2022-08-20T06:31:27.888Z,17.92
2022-08-20T06:33:55.419Z,18.85
2022-08-20T06:36:22.865Z,18.27
2022-08-20T06:38:50.299Z,17.58
2022-08-20T06:41:18.191Z,16.83
2022-08-20T06:43:46.484Z,18.33
2022-08-20T06:46:15.537Z,17.27
2022-08-20T06:48:43.038Z,16.25
2022-08-20T06:51:10.471Z,15.40
2022-08-20T06:53:38.877Z,17.15
2022-08-20T06:56:06.631Z,16.73
2022-08-20T06:58:37.350Z,20.23
2022-08-20T07:01:10.142Z,18.53
2022-08-20T07:03:39.333Z,18.55
2022-08-20T07:06:11.140Z,17.08
2022-08-20T07:08:38.567Z,19.27
2022-08-20T07:11:07.554Z,19.60
2022-08-20T07:13:36.602Z,19.55
2022-08-20T07:16:04.246Z,18.02
2022-08-20T07:18:31.857Z,19.60
2022-08-20T07:21:01.119Z,18.70
2022-08-20T07:23:28.771Z,19.52
2022-08-20T07:25:56.254Z,19.77
2022-08-20T07:28:25.754Z,21.55
2022-08-20T07:31:13.244Z,20.38
2022-08-20T07:33:41.795Z,21.20
2022-08-20T07:36:10.967Z,21.77
2022-08-20T07:38:38.409Z,21.95
2022-08-20T07:41:07.006Z,25.98
2022-08-20T07:43:34.827Z,22.02
2022-08-20T07:46:09.010Z,20.23
2022-08-20T07:48:38.941Z,23.23
2022-08-20T07:51:06.970Z,22.30
2022-08-20T07:53:36.834Z,23.00
2022-08-20T07:56:05.834Z,23.38
2022-08-20T07:58:35.661Z,23.02
2022-08-20T08:01:03.189Z,23.45
2022-08-20T08:03:40.662Z,21.08
2022-08-20T08:06:28.424Z,21.85
2022-08-20T08:09:00.029Z,23.05
2022-08-20T08:11:27.510Z,22.25
2022-08-20T08:13:54.975Z,23.67
2022-08-20T08:16:22.438Z,27.90
2022-08-20T08:18:56.406Z,24.38
2022-08-20T08:21:23.874Z,25.23
2022-08-20T08:23:53.260Z,28.80
2022-08-20T08:26:22.396Z,25.80
2022-08-20T08:28:49.856Z,25.42
2022-08-20T08:31:17.279Z,24.27
2022-08-20T08:33:45.322Z,22.80
2022-08-20T08:36:13.558Z,23.27
2022-08-20T08:38:44.083Z,22.95
2022-08-20T08:41:14.882Z,21.38
2022-08-20T08:43:46.586Z,24.25
2022-08-20T08:46:17.909Z,23.58
2022-08-20T08:48:47.663Z,24.85
2022-08-20T08:51:17.596Z,24.42
2022-08-20T08:53:47.136Z,24.50
2022-08-20T08:56:15.686Z,26.65
2022-08-20T08:58:44.906Z,22.85
2022-08-20T09:01:52.901Z,25.13
2022-08-20T09:04:02.753Z,22.60
2022-08-20T09:06:30.194Z,23.73
2022-08-20T09:09:00.993Z,23.52
2022-08-20T09:11:28.614Z,24.80
2022-08-20T09:13:58.497Z,25.75
2022-08-20T09:16:29.154Z,26.38
2022-08-20T09:19:14.830Z,23.77
2022-08-20T09:21:42.283Z,22.88
2022-08-20T09:24:09.726Z,25.63
2022-08-20T09:26:39.131Z,22.85
2022-08-20T09:29:08.179Z,26.55
2022-08-20T09:31:36.302Z,24.02
2022-08-20T09:34:05.731Z,23.73
2022-08-20T09:36:33.316Z,23.95
2022-08-20T09:39:02.924Z,22.15
2022-08-20T09:41:30.951Z,25.35
2022-08-20T09:44:02.166Z,23.58
2022-08-20T09:46:30.934Z,23.30
2022-08-20T09:48:58.379Z,29.85
2022-08-20T09:51:25.861Z,28.30
2022-08-20T09:53:53.392Z,29.98
2022-08-20T09:56:20.875Z,27.45
2022-08-20T09:58:50.287Z,29.73
2022-08-20T10:01:18.651Z,29.08
2022-08-20T10:03:48.903Z,25.88
2022-08-20T10:06:17.832Z,26.67
2022-08-20T10:08:45.636Z,28.00
2022-08-20T10:11:13.495Z,26.30
2022-08-20T10:13:40.909Z,28.17
2022-08-20T10:16:08.431Z,23.65
2022-08-20T10:18:36.127Z,23.13
2022-08-20T10:21:09.654Z,29.27
2022-08-20T10:23:37.054Z,25.48
2022-08-20T10:26:06.673Z,23.75
2022-08-20T10:28:34.984Z,21.70
2022-08-20T10:31:04.532Z,23.27
2022-08-20T10:33:32.200Z,24.65
2022-08-20T10:36:00.321Z,20.73
2022-08-20T10:38:29.163Z,23.98
2022-08-20T10:40:56.637Z,23.73
2022-08-20T10:43:24.099Z,21.50
2022-08-20T10:45:51.826Z,21.63
2022-08-20T10:48:21.519Z,21.35
2022-08-20T10:50:49.323Z,22.13
2022-08-20T10:53:16.759Z,17.95
2022-08-20T10:55:45.563Z,18.17
2022-08-20T10:58:13.255Z,21.30
2022-08-20T11:00:41.029Z,17.58
2022-08-20T11:03:08.456Z,17.17
2022-08-20T11:05:36.088Z,15.88
2022-08-20T11:08:04.027Z,13.88
2022-08-20T11:10:33.239Z,16.83
2022-08-20T11:13:03.047Z,13.65
2022-08-20T11:15:30.979Z,13.10
2022-08-20T11:17:58.582Z,11.80
2022-08-20T11:20:26.964Z,11.50
2022-08-20T11:22:54.619Z,15.30
2022-08-20T11:25:22.315Z,15.10
2022-08-20T11:27:50.440Z,13.15
2022-08-20T11:30:22.578Z,13.27
2022-08-20T11:32:50.074Z,12.95
2022-08-20T11:35:41.806Z,16.40
2022-08-20T11:38:06.457Z,14.23
2022-08-20T11:40:33.938Z,11.77
2022-08-20T11:43:17.856Z,14.18
2022-08-20T11:45:47.878Z,10.95
2022-08-20T11:48:15.345Z,11.15
2022-08-20T11:50:42.807Z,10.52
2022-08-20T11:53:10.267Z,12.13
2022-08-20T11:55:38.687Z,12.25
2022-08-20T11:58:06.860Z,9.63
2022-08-20T12:00:34.590Z,12.77
2022-08-20T12:03:04.944Z,10.35
2022-08-20T12:05:32.700Z,10.43
2022-08-20T12:08:01.486Z,9.32
2022-08-20T12:10:29.087Z,10.45
2022-08-20T12:12:56.809Z,10.68
2022-08-20T12:15:25.215Z,13.23
2022-08-20T12:17:52.628Z,9.73
2022-08-20T12:20:21.567Z,7.65
2022-08-20T12:22:49.043Z,10.32
2022-08-20T12:25:16.456Z,6.90
2022-08-20T12:27:44.194Z,8.32
2022-08-20T12:30:13.141Z,9.77
2022-08-20T12:32:40.583Z,10.95
2022-08-20T12:35:09.528Z,10.88
2022-08-20T12:37:38.642Z,10.00
2022-08-20T12:40:07.681Z,10.75
2022-08-20T12:42:35.556Z,8.50
2022-08-20T12:45:03.007Z,10.70
2022-08-20T12:47:31.417Z,8.27
2022-08-20T12:50:00.765Z,8.45
2022-08-20T12:52:29.242Z,7.25
2022-08-20T12:54:58.497Z,11.43
2022-08-20T12:57:28.222Z,7.68
2022-08-20T12:59:55.951Z,9.45
2022-08-20T13:02:23.591Z,9.95
2022-08-20T13:04:51.499Z,10.00
2022-08-20T13:07:18.916Z,9.13
2022-08-20T13:09:46.367Z,9.98
2022-08-20T13:12:15.272Z,9.27
2022-08-20T13:14:42.787Z,8.80
2022-08-20T13:17:10.466Z,9.60
2022-08-20T13:19:39.049Z,9.48
2022-08-20T13:22:06.959Z,10.70
2022-08-20T13:24:34.795Z,9.10
2022-08-20T13:27:06.080Z,8.50
2022-08-20T13:29:34.928Z,8.00
2022-08-20T13:32:02.378Z,8.05
2022-08-20T13:34:29.848Z,11.05
2022-08-20T13:36:57.283Z,8.68
2022-08-20T13:39:24.840Z,8.15
2022-08-20T13:41:52.240Z,10.23
2022-08-20T13:44:19.734Z,8.02
2022-08-20T13:46:48.603Z,8.23
2022-08-20T13:49:16.371Z,9.02
2022-08-20T13:51:43.810Z,8.20
2022-08-20T13:54:11.215Z,10.63
2022-08-20T13:56:38.693Z,11.68
2022-08-20T13:59:06.102Z,9.30
2022-08-20T14:01:34.079Z,15.23
2022-08-20T14:04:02.826Z,9.95
2022-08-20T14:06:31.515Z,15.32
2022-08-20T14:08:58.874Z,13.82
2022-08-20T14:11:26.430Z,13.00
2022-08-20T14:13:53.895Z,13.15
2022-08-20T14:16:27.702Z,17.75
2022-08-20T14:18:56.362Z,18.48
2022-08-20T14:21:25.378Z,12.90
2022-08-20T14:23:52.911Z,16.25
2022-08-20T14:26:20.380Z,13.57
2022-08-20T14:28:47.808Z,16.33
2022-08-20T14:31:15.237Z,16.85
2022-08-20T14:33:44.791Z,21.05
2022-08-20T14:36:12.344Z,17.08
2022-08-20T14:38:45.043Z,17.17
2022-08-20T14:41:12.829Z,20.10
2022-08-20T14:43:40.232Z,18.35
2022-08-20T14:46:07.638Z,17.55
2022-08-20T14:48:35.091Z,15.43
2022-08-20T14:51:03.135Z,16.25
2022-08-20T14:53:31.085Z,17.77
2022-08-20T14:56:01.454Z,16.48
2022-08-20T15:00:56.929Z,14.85
2022-08-20T15:03:30.284Z,15.23
2022-08-20T15:05:58.065Z,15.95
2022-08-20T15:08:28.889Z,15.20
2022-08-20T15:10:56.386Z,14.57
2022-08-20T15:13:25.187Z,16.02
2022-08-20T15:15:52.595Z,15.18
2022-08-20T15:18:24.347Z,17.50
2022-08-20T15:20:51.796Z,15.93
2022-08-20T15:23:19.231Z,17.15
2022-08-20T15:25:46.665Z,14.63
2022-08-20T15:28:14.136Z,18.05
2022-08-20T15:30:42.979Z,18.75
2022-08-20T15:33:11.076Z,16.33
2022-08-20T15:35:39.803Z,17.08
2022-08-20T15:38:07.243Z,17.88
2022-08-20T15:40:34.894Z,15.98
2022-08-20T15:43:03.348Z,15.70
2022-08-20T15:45:30.860Z,16.35
2022-08-20T15:48:03.922Z,16.80
2022-08-20T15:50:35.702Z,15.40
2022-08-20T15:53:05.528Z,19.67
2022-08-20T15:55:33.272Z,18.40
2022-08-20T15:58:06.663Z,16.83
2022-08-20T16:00:39.732Z,22.08
2022-08-20T16:03:21.053Z,21.42
2022-08-20T16:05:51.574Z,19.90
2022-08-20T16:08:35.649Z,22.60
2022-08-20T16:11:08.428Z,21.00
2022-08-20T16:13:41.338Z,22.98
2022-08-20T16:16:11.835Z,26.92
2022-08-20T16:18:41.003Z,19.48
2022-08-20T16:21:10.379Z,20.67
2022-08-20T16:23:39.087Z,21.27
2022-08-20T16:26:14.582Z,20.95
2022-08-20T16:28:47.570Z,21.52
2022-08-20T16:31:16.884Z,20.80
2022-08-20T16:33:48.826Z,22.75
2022-08-20T16:36:20.919Z,22.80
2022-08-20T16:38:51.206Z,20.42
2022-08-20T16:41:22.596Z,21.52
2022-08-20T16:43:53.704Z,23.38
2022-08-20T16:46:22.611Z,20.88
2022-08-20T16:48:56.152Z,21.88
2022-08-20T16:51:26.912Z,21.35
2022-08-20T16:53:54.376Z,22.67
2022-08-20T16:56:31.295Z,20.75
2022-08-20T17:01:27.048Z,23.02
2022-08-20T17:03:55.889Z,20.42
2022-08-20T17:06:26.559Z,22.88
2022-08-20T17:08:55.088Z,23.83
2022-08-20T17:11:27.077Z,20.85
2022-08-20T17:14:04.486Z,25.30
2022-08-20T17:16:33.539Z,24.45
2022-08-20T17:19:10.299Z,26.40
2022-08-20T17:21:38.922Z,25.10
2022-08-20T17:24:10.293Z,21.25
2022-08-20T17:26:45.682Z,22.52
2022-08-20T17:29:14.665Z,21.95
2022-08-20T17:31:44.982Z,23.23
2022-08-20T17:34:17.935Z,23.65
2022-08-20T17:36:50.482Z,25.45
2022-08-20T17:39:19.314Z,22.67
2022-08-20T17:41:48.637Z,27.00
2022-08-20T17:44:21.091Z,27.05
2022-08-20T17:46:49.598Z,26.77
2022-08-20T17:49:19.918Z,27.80
2022-08-20T17:51:48.360Z,26.60
2022-08-20T17:54:20.211Z,27.58
2022-08-20T17:56:48.066Z,28.50
2022-08-20T17:59:33.598Z,27.23
2022-08-20T18:02:05.165Z,28.67
2022-08-20T18:04:33.971Z,28.83
2022-08-20T18:07:04.869Z,29.90
2022-08-20T18:09:37.503Z,29.70
2022-08-20T18:12:27.947Z,27.27
2022-08-20T18:15:01.794Z,28.88
2022-08-20T18:17:44.942Z,32.22
2022-08-20T18:20:25.216Z,29.95
2022-08-20T18:22:54.795Z,27.10
2022-08-20T18:25:29.790Z,29.67
2022-08-20T18:28:02.311Z,27.92
2022-08-20T18:30:29.762Z,29.38
2022-08-20T18:33:02.014Z,28.10
2022-08-20T18:35:35.038Z,31.13
2022-08-20T18:38:12.597Z,29.42
2022-08-20T18:40:41.516Z,26.58
2022-08-20T18:43:13.429Z,26.10
2022-08-20T18:45:40.874Z,28.63
2022-08-20T18:48:09.320Z,29.63
2022-08-20T18:50:46.940Z,25.35
2022-08-20T18:53:16.767Z,25.17
2022-08-20T18:55:45.169Z,23.30
2022-08-20T18:58:14.105Z,21.35
2022-08-20T19:00:44.887Z,22.70
2022-08-20T19:03:15.704Z,20.63
2022-08-20T19:05:53.059Z,20.20
2022-08-20T19:08:22.040Z,19.45
2022-08-20T19:10:52.912Z,19.85
2022-08-20T19:13:45.991Z,21.13
2022-08-20T19:16:15.820Z,21.20
2022-08-20T19:18:47.664Z,21.80
2022-08-20T19:21:17.939Z,14.50
2022-08-20T19:23:48.642Z,15.93
2022-08-20T19:26:25.043Z,16.25
2022-08-20T19:28:55.849Z,14.60
2022-08-20T19:31:25.882Z,14.70
2022-08-20T19:34:02.008Z,14.10
2022-08-20T19:36:31.794Z,12.85
2022-08-20T19:39:00.232Z,15.70
2022-08-20T19:41:31.456Z,13.98
2022-08-20T19:43:59.654Z,14.50
2022-08-20T19:46:29.491Z,15.20
2022-08-20T19:49:05.616Z,14.70
2022-08-20T19:51:42.236Z,17.58
2022-08-20T19:54:19.523Z,16.35
2022-08-20T19:56:46.955Z,22.33
2022-08-20T19:59:19.084Z,15.23
2022-08-20T20:01:52.196Z,14.23
2022-08-20T20:04:19.684Z,13.75
2022-08-20T20:06:49.955Z,13.38
2022-08-20T20:09:19.508Z,14.18
2022-08-20T20:11:47.957Z,13.50
2022-08-20T20:14:17.473Z,12.32
2022-08-20T20:16:46.482Z,10.70
2022-08-20T20:19:29.878Z,11.75
2022-08-20T20:24:27.731Z,10.48
2022-08-20T20:26:55.496Z,11.15
2022-08-20T20:29:24.593Z,11.63
2022-08-20T20:31:53.304Z,11.65
2022-08-20T20:34:25.814Z,12.60
2022-08-20T20:37:02.730Z,15.20
2022-08-20T20:39:33.669Z,12.95
2022-08-20T20:42:02.500Z,12.95
2022-08-20T20:44:37.045Z,11.68
2022-08-20T20:47:06.490Z,12.50
2022-08-20T20:49:35.771Z,14.77
2022-08-20T20:52:05.515Z,13.43
2022-08-20T20:54:45.042Z,10.98
2022-08-20T20:57:36.418Z,11.07
2022-08-20T21:00:06.890Z,11.00
2022-08-20T21:02:34.362Z,11.25
2022-08-20T21:05:01.811Z,13.93
2022-08-20T21:07:29.236Z,12.38
2022-08-20T21:09:58.246Z,12.43
2022-08-20T21:12:25.864Z,12.10
2022-08-20T21:14:53.515Z,14.18
2022-08-20T21:17:22.724Z,13.48
2022-08-20T21:19:50.900Z,13.73
2022-08-20T21:22:18.740Z,14.20
2022-08-20T21:24:48.410Z,12.93
2022-08-20T21:27:17.263Z,13.27
2022-08-20T21:29:44.758Z,13.73
2022-08-20T21:32:12.399Z,13.63
2022-08-20T21:34:42.722Z,17.23
2022-08-20T21:37:10.392Z,16.55
2022-08-20T21:39:37.826Z,15.55
2022-08-20T21:42:12.273Z,13.10
2022-08-20T21:44:55.089Z,16.02
2022-08-20T21:47:22.755Z,16.23
2022-08-20T21:49:50.208Z,12.95
2022-08-20T21:52:18.910Z,13.73
2022-08-20T21:54:46.431Z,14.63
2022-08-20T21:57:15.432Z,11.90
2022-08-20T21:59:43.354Z,15.85
2022-08-20T22:02:12.374Z,12.23
2022-08-20T22:04:39.840Z,15.18
2022-08-20T22:07:07.362Z,15.60
2022-08-20T22:09:36.089Z,12.77
2022-08-20T22:12:04.443Z,16.42
2022-08-20T22:14:32.140Z,11.90
2022-08-20T22:16:59.531Z,13.63
2022-08-20T22:19:28.336Z,14.27
2022-08-20T22:21:55.907Z,13.02
2022-08-20T22:24:23.918Z,15.85
2022-08-20T22:26:51.341Z,13.70
2022-08-20T22:29:18.823Z,12.95
2022-08-20T22:31:46.208Z,12.73
2022-08-20T22:34:14.528Z,11.82
2022-08-20T22:36:43.898Z,11.27
2022-08-20T22:39:11.415Z,14.93
2022-08-20T22:41:39.191Z,10.18
2022-08-20T22:44:06.640Z,11.68
2022-08-20T22:46:35.844Z,11.20
2022-08-20T22:49:03.358Z,10.27
2022-08-20T22:51:31.598Z,10.95
2022-08-20T22:54:03.739Z,10.93
2022-08-20T22:56:31.149Z,12.57
2022-08-20T22:58:59.225Z,11.85
2022-08-20T23:01:27.719Z,10.52
2022-08-20T23:03:55.715Z,9.90
2022-08-20T23:06:23.796Z,10.52
2022-08-20T23:08:51.249Z,11.15
2022-08-20T23:11:20.350Z,13.85
2022-08-20T23:13:47.783Z,9.63
2022-08-20T23:16:15.187Z,8.55
2022-08-20T23:18:42.670Z,9.60
2022-08-20T23:21:10.079Z,11.40
2022-08-20T23:23:37.531Z,10.93
2022-08-20T23:26:05.092Z,10.23
2022-08-20T23:28:34.217Z,7.57
2022-08-20T23:31:01.655Z,8.38
2022-08-20T23:33:29.057Z,8.73
2022-08-20T23:35:56.607Z,8.93
2022-08-20T23:38:24.018Z,9.57
2022-08-20T23:40:51.805Z,9.38
2022-08-20T23:43:19.643Z,10.13
2022-08-20T23:45:48.463Z,9.25
2022-08-20T23:48:15.914Z,10.00
2022-08-20T23:50:43.714Z,8.27
2022-08-20T23:53:11.650Z,9.30
2022-08-20T23:55:39.134Z,8.90
2022-08-20T23:58:06.594Z,7.78
